Time;durP1;ratioP1;P1;durP2;ratioP2;P2;SDS_P1;SDS_P2;PMS_P1;PMS_P2;Temp;Humidity;BMP_temperature;BMP_pressure;BME280_temperature;BME280_humidity;BME280_pressure;Samples;Min_cycle;Max_cycle;Signal;HPM_P1;HPM_P2
2022/06/01 00:00:20;;;;;;;0.00;0.00;;;;;;;;;;6170634;23;20040;-56
2022/06/01 00:02:45;;;;;;;0.10;0.10;;;;;;;;;;6175074;23;20048;-54
2022/06/01 00:05:10;;;;;;;0.05;0.05;;;;;;;;;;6172297;23;20073;-56
2022/06/01 00:07:35;;;;;;;1.02;0.50;;;;;;;;;;6175018;23;20013;-57
2022/06/01 00:10:01;;;;;;;0.00;0.00;;;;;;;;;;6173821;23;20017;-55
2022/06/01 00:12:29;;;;;;;0.05;0.05;;;;;;;;;;6177136;23;20028;-55
2022/06/01 00:14:54;;;;;;;0.10;0.10;;;;;;;;;;6171592;23;20024;-54
2022/06/01 00:17:20;;;;;;;0.30;0.30;;;;;;;;;;6175885;23;20013;-55
2022/06/01 00:19:46;;;;;;;0.10;0.10;;;;;;;;;;6172365;23;20472;-56
2022/06/01 00:22:14;;;;;;;0.10;0.10;;;;;;;;;;6176996;23;20021;-57
2022/06/01 00:24:40;;;;;;;0.10;0.10;;;;;;;;;;6169248;23;20075;-56
2022/06/01 00:27:06;;;;;;;0.08;0.08;;;;;;;;;;6176929;23;20013;-54
2022/06/01 00:29:32;;;;;;;0.20;0.20;;;;;;;;;;6168157;23;20024;-57
2022/06/01 00:31:57;;;;;;;0.10;0.10;;;;;;;;;;6177345;23;20638;-55
2022/06/01 00:34:22;;;;;;;0.20;0.20;;;;;;;;;;6174458;23;20005;-55
2022/06/01 00:36:47;;;;;;;0.10;0.10;;;;;;;;;;6174114;23;20017;-56
2022/06/01 00:39:13;;;;;;;0.10;0.10;;;;;;;;;;6175335;23;20020;-56
2022/06/01 00:41:38;;;;;;;0.10;0.10;;;;;;;;;;6173336;23;20009;-56
2022/06/01 00:44:03;;;;;;;2.38;0.95;;;;;;;;;;6176544;23;20025;-57
2022/06/01 00:46:30;;;;;;;0.10;0.10;;;;;;;;;;6169704;23;20087;-53
2022/06/01 00:48:57;;;;;;;0.10;0.10;;;;;;;;;;6177670;23;20013;-55
2022/06/01 00:51:24;;;;;;;0.10;0.10;;;;;;;;;;6173167;23;20040;-56
2022/06/01 00:53:51;;;;;;;0.10;0.10;;;;;;;;;;6178477;23;20101;-57
2022/06/01 00:56:22;;;;;;;0.00;0.00;;;;;;;;;;6172564;23;20021;-53
2022/06/01 00:58:49;;;;;;;0.03;0.03;;;;;;;;;;6177621;23;20029;-56
2022/06/01 01:01:17;;;;;;;0.05;0.05;;;;;;;;;;6173248;23;20095;-54
2022/06/01 01:03:43;;;;;;;0.10;0.10;;;;;;;;;;6178776;23;20013;-55
2022/06/01 01:06:11;;;;;;;0.10;0.10;;;;;;;;;;6173122;23;20024;-56
2022/06/01 01:08:37;;;;;;;0.08;0.08;;;;;;;;;;6174934;23;20444;-53
2022/06/01 01:11:02;;;;;;;0.05;0.05;;;;;;;;;;6168946;23;20049;-56
2022/06/01 01:13:28;;;;;;;0.35;0.17;;;;;;;;;;6177271;23;20005;-56
2022/06/01 01:15:56;;;;;;;0.08;0.08;;;;;;;;;;6176556;23;20037;-55
2022/06/01 01:18:22;;;;;;;0.52;0.52;;;;;;;;;;6173693;23;20009;-56
2022/06/01 01:20:54;;;;;;;0.10;0.10;;;;;;;;;;6175513;23;20009;-54
2022/06/01 01:23:40;;;;;;;0.10;0.10;;;;;;;;;;6175531;23;20032;-56
2022/06/01 01:26:06;;;;;;;0.15;0.15;;;;;;;;;;6173478;23;20028;-56
2022/06/01 01:28:31;;;;;;;0.10;0.10;;;;;;;;;;6169244;23;20013;-57
2022/06/01 01:30:59;;;;;;;0.00;0.00;;;;;;;;;;6178463;23;20009;-52
2022/06/01 01:33:26;;;;;;;6.97;0.90;;;;;;;;;;6175041;23;20017;-57
2022/06/01 01:35:53;;;;;;;0.00;0.00;;;;;;;;;;6166638;23;20017;-55
2022/06/01 01:38:22;;;;;;;0.08;0.08;;;;;;;;;;6178115;23;20478;-54
2022/06/01 01:41:03;;;;;;;0.10;0.10;;;;;;;;;;6175942;23;20028;-53
2022/06/01 01:43:28;;;;;;;0.10;0.10;;;;;;;;;;6175660;23;20486;-55
2022/06/01 01:45:54;;;;;;;0.20;0.20;;;;;;;;;;6176822;23;20005;-57
2022/06/01 01:48:19;;;;;;;0.10;0.10;;;;;;;;;;6174836;23;20359;-55
2022/06/01 01:50:44;;;;;;;0.10;0.10;;;;;;;;;;6174186;23;20079;-55
2022/06/01 01:53:10;;;;;;;5.82;1.13;;;;;;;;;;6171807;23;20488;-56
2022/06/01 01:56:04;;;;;;;0.10;0.10;;;;;;;;;;6176817;23;20020;-56
2022/06/01 01:58:49;;;;;;;0.10;0.10;;;;;;;;;;6149248;23;20024;-56
2022/06/01 02:01:21;;;;;;;0.10;0.10;;;;;;;;;;6169999;23;20017;-52
2022/06/01 02:03:51;;;;;;;0.10;0.10;;;;;;;;;;6175833;23;20088;-55
2022/06/01 02:06:32;;;;;;;0.10;0.10;;;;;;;;;;6175758;23;20017;-55
2022/06/01 02:08:59;;;;;;;0.10;0.10;;;;;;;;;;6175338;23;20036;-55
2022/06/01 02:14:28;;;;;;;0.00;0.00;;;;;;;;;;6171538;23;20044;-55
2022/06/01 02:16:59;;;;;;;0.10;0.10;;;;;;;;;;6176779;23;20005;-55
2022/06/01 02:19:26;;;;;;;0.73;0.73;;;;;;;;;;6171487;23;20020;-54
2022/06/01 02:21:51;;;;;;;1.00;0.75;;;;;;;;;;6176851;23;20357;-56
2022/06/01 02:24:17;;;;;;;0.00;0.00;;;;;;;;;;6173911;23;20021;-57
2022/06/01 02:26:43;;;;;;;0.10;0.10;;;;;;;;;;6169575;23;20605;-57
2022/06/01 02:29:11;;;;;;;0.10;0.10;;;;;;;;;;6178484;23;20028;-56
2022/06/01 02:31:37;;;;;;;0.00;0.00;;;;;;;;;;6169503;23;20001;-56
2022/06/01 02:34:04;;;;;;;0.77;0.77;;;;;;;;;;6174997;23;20092;-57
2022/06/01 02:36:30;;;;;;;0.10;0.10;;;;;;;;;;6175650;23;20424;-55
2022/06/01 02:38:56;;;;;;;0.10;0.10;;;;;;;;;;6175369;23;20208;-54
2022/06/01 02:44:06;;;;;;;0.10;0.10;;;;;;;;;;6165705;23;20027;-55
2022/06/01 02:46:31;;;;;;;0.00;0.00;;;;;;;;;;6173953;23;20012;-56
2022/06/01 02:48:57;;;;;;;0.10;0.10;;;;;;;;;;6176714;23;20437;-55
2022/06/01 02:51:22;;;;;;;0.10;0.10;;;;;;;;;;6172399;23;20025;-57
2022/06/01 02:53:48;;;;;;;0.17;0.17;;;;;;;;;;6174564;23;20016;-55
2022/06/01 02:56:14;;;;;;;0.00;0.00;;;;;;;;;;6170880;23;20013;-53
2022/06/01 02:58:39;;;;;;;0.10;0.10;;;;;;;;;;6174413;23;20013;-56
2022/06/01 03:01:06;;;;;;;0.03;0.03;;;;;;;;;;6177264;23;20013;-57
2022/06/01 03:03:32;;;;;;;0.00;0.00;;;;;;;;;;6171784;23;20009;-56
2022/06/01 03:05:58;;;;;;;0.00;0.00;;;;;;;;;;6177251;23;20025;-56
2022/06/01 03:08:23;;;;;;;0.10;0.10;;;;;;;;;;6177716;23;20093;-55
2022/06/01 03:10:48;;;;;;;0.10;0.10;;;;;;;;;;6170800;23;20084;-56
2022/06/01 03:13:14;;;;;;;0.10;0.10;;;;;;;;;;6177858;23;20009;-55
2022/06/01 03:15:39;;;;;;;0.10;0.10;;;;;;;;;;6172390;23;20039;-56
2022/06/01 03:18:05;;;;;;;0.10;0.10;;;;;;;;;;6176953;23;20467;-57
2022/06/01 03:20:31;;;;;;;0.03;0.03;;;;;;;;;;6167591;23;20601;-56
2022/06/01 03:22:57;;;;;;;0.50;0.50;;;;;;;;;;6172254;23;20021;-54
2022/06/01 03:25:23;;;;;;;0.20;0.20;;;;;;;;;;6172822;23;20020;-57
2022/06/01 03:27:49;;;;;;;0.08;0.08;;;;;;;;;;6176578;23;20012;-55
2022/06/01 03:30:15;;;;;;;0.10;0.10;;;;;;;;;;6175545;23;20083;-54
2022/06/01 03:32:43;;;;;;;0.90;0.90;;;;;;;;;;6175013;23;20048;-53
2022/06/01 03:35:09;;;;;;;0.63;0.63;;;;;;;;;;6175101;23;20067;-56
2022/06/01 03:37:34;;;;;;;0.10;0.10;;;;;;;;;;6175941;23;20084;-55
2022/06/01 03:39:59;;;;;;;0.10;0.10;;;;;;;;;;6173327;23;20159;-57
2022/06/01 03:42:24;;;;;;;0.20;0.20;;;;;;;;;;6175713;23;20035;-56
2022/06/01 03:47:33;;;;;;;0.28;0.28;;;;;;;;;;6172006;23;20020;-54
2022/06/01 03:49:59;;;;;;;0.10;0.10;;;;;;;;;;6175792;23;20017;-53
2022/06/01 03:52:25;;;;;;;0.10;0.10;;;;;;;;;;6175527;23;20033;-55
2022/06/01 03:54:50;;;;;;;0.20;0.20;;;;;;;;;;6170059;23;20022;-54
2022/06/01 03:57:16;;;;;;;0.00;0.00;;;;;;;;;;6173055;23;20013;-55
2022/06/01 03:59:41;;;;;;;0.00;0.00;;;;;;;;;;6174215;23;20036;-54
2022/06/01 04:02:06;;;;;;;0.10;0.10;;;;;;;;;;6170537;23;20013;-57
2022/06/01 04:04:33;;;;;;;0.35;0.35;;;;;;;;;;6174573;23;20049;-56
2022/06/01 04:06:58;;;;;;;0.30;0.30;;;;;;;;;;6175037;23;20024;-57
2022/06/01 04:09:24;;;;;;;3.03;0.65;;;;;;;;;;6173184;23;20013;-56
2022/06/01 04:11:51;;;;;;;0.10;0.10;;;;;;;;;;6175613;23;20009;-56
2022/06/01 04:14:17;;;;;;;0.10;0.10;;;;;;;;;;6169017;23;20745;-54
2022/06/01 04:16:42;;;;;;;0.30;0.30;;;;;;;;;;6174051;23;20013;-56
2022/06/01 04:19:07;;;;;;;0.08;0.08;;;;;;;;;;6172213;23;20013;-55
2022/06/01 04:21:34;;;;;;;0.30;0.30;;;;;;;;;;6167104;23;20016;-52
2022/06/01 04:24:01;;;;;;;0.00;0.00;;;;;;;;;;6179969;23;20021;-56
2022/06/01 04:26:26;;;;;;;0.08;0.08;;;;;;;;;;6176276;23;20028;-55
2022/06/01 04:28:52;;;;;;;0.08;0.08;;;;;;;;;;6174198;23;20020;-54
2022/06/01 04:31:18;;;;;;;0.10;0.10;;;;;;;;;;6174574;23;20024;-56
2022/06/01 04:33:43;;;;;;;0.10;0.10;;;;;;;;;;6178521;23;20013;-53
2022/06/01 04:36:08;;;;;;;0.10;0.10;;;;;;;;;;6172035;23;20021;-56
2022/06/01 04:38:34;;;;;;;0.20;0.20;;;;;;;;;;6178941;23;20005;-53
2022/06/01 04:40:59;;;;;;;0.10;0.10;;;;;;;;;;6175370;23;20020;-55
2022/06/01 04:43:24;;;;;;;0.03;0.03;;;;;;;;;;6175391;23;20052;-55
2022/06/01 04:45:50;;;;;;;0.00;0.00;;;;;;;;;;6179226;23;20009;-55
2022/06/01 04:48:15;;;;;;;0.00;0.00;;;;;;;;;;6169669;23;20017;-54
2022/06/01 04:50:43;;;;;;;12.80;1.33;;;;;;;;;;6176100;23;20037;-53
2022/06/01 04:53:12;;;;;;;0.30;0.20;;;;;;;;;;6175440;23;20027;-56
2022/06/01 04:55:38;;;;;;;0.25;0.25;;;;;;;;;;6175267;23;20871;-53
2022/06/01 04:58:03;;;;;;;0.20;0.20;;;;;;;;;;6175153;23;20028;-56
2022/06/01 05:00:29;;;;;;;0.10;0.10;;;;;;;;;;6178156;23;20079;-54
2022/06/01 05:02:54;;;;;;;0.55;0.35;;;;;;;;;;6175429;23;20033;-54
2022/06/01 05:05:19;;;;;;;0.10;0.10;;;;;;;;;;6173219;23;20021;-56
2022/06/01 05:07:45;;;;;;;0.10;0.10;;;;;;;;;;6174153;23;20019;-54
2022/06/01 05:10:10;;;;;;;0.08;0.08;;;;;;;;;;6177749;23;20009;-54
2022/06/01 05:12:35;;;;;;;0.30;0.20;;;;;;;;;;6176092;23;20085;-56
2022/06/01 05:15:00;;;;;;;0.10;0.10;;;;;;;;;;6178113;23;20174;-54
2022/06/01 05:17:26;;;;;;;0.10;0.10;;;;;;;;;;6165611;23;20083;-53
2022/06/01 05:19:51;;;;;;;2.20;1.08;;;;;;;;;;6173371;23;20021;-55
2022/06/01 05:22:16;;;;;;;0.00;0.00;;;;;;;;;;6175829;23;20036;-53
2022/06/01 05:24:42;;;;;;;0.10;0.10;;;;;;;;;;6174475;23;20024;-54
2022/06/01 05:27:07;;;;;;;0.00;0.00;;;;;;;;;;6176025;23;20439;-57
2022/06/01 05:29:33;;;;;;;0.00;0.00;;;;;;;;;;6173770;23;20092;-55
2022/06/01 05:31:59;;;;;;;0.10;0.10;;;;;;;;;;6178445;23;20009;-56
2022/06/01 05:34:24;;;;;;;0.80;0.80;;;;;;;;;;6174649;23;20751;-56
2022/06/01 05:36:50;;;;;;;0.20;0.20;;;;;;;;;;6176656;23;20068;-56
2022/06/01 05:39:16;;;;;;;0.20;0.20;;;;;;;;;;6173614;23;20304;-57
2022/06/01 05:41:41;;;;;;;0.20;0.20;;;;;;;;;;6171379;23;20005;-54
2022/06/01 05:44:06;;;;;;;0.25;0.25;;;;;;;;;;6176649;23;20072;-56
2022/06/01 05:46:35;;;;;;;0.00;0.00;;;;;;;;;;6174372;23;20017;-55
2022/06/01 05:49:00;;;;;;;0.10;0.10;;;;;;;;;;6179083;23;20072;-55
2022/06/01 05:51:25;;;;;;;0.10;0.10;;;;;;;;;;6173067;23;20028;-56
2022/06/01 05:53:51;;;;;;;0.75;0.75;;;;;;;;;;6172639;23;20024;-56
2022/06/01 05:56:16;;;;;;;0.47;0.47;;;;;;;;;;6175221;23;20039;-56
2022/06/01 05:58:41;;;;;;;0.20;0.20;;;;;;;;;;6174076;23;20089;-55
2022/06/01 06:01:07;;;;;;;0.00;0.00;;;;;;;;;;6175362;23;20067;-57
2022/06/01 06:03:32;;;;;;;0.95;0.88;;;;;;;;;;6174168;23;20163;-57
2022/06/01 06:06:17;;;;;;;0.30;0.30;;;;;;;;;;6174216;23;20021;-54
2022/06/01 06:08:44;;;;;;;0.25;0.25;;;;;;;;;;6174039;23;20009;-55
2022/06/01 06:11:10;;;;;;;0.10;0.10;;;;;;;;;;6175087;23;20017;-55
2022/06/01 06:13:36;;;;;;;0.10;0.10;;;;;;;;;;6168717;23;20052;-56
2022/06/01 06:16:02;;;;;;;0.00;0.00;;;;;;;;;;6180038;23;20384;-56
2022/06/01 06:18:27;;;;;;;0.13;0.13;;;;;;;;;;6173711;23;20017;-55
2022/06/01 06:20:52;;;;;;;0.05;0.05;;;;;;;;;;6170027;23;20024;-57
2022/06/01 06:23:17;;;;;;;0.10;0.10;;;;;;;;;;6167689;23;20029;-56
2022/06/01 06:25:43;;;;;;;0.47;0.30;;;;;;;;;;6169518;23;20005;-53
2022/06/01 06:28:09;;;;;;;2.10;0.35;;;;;;;;;;6176913;23;20017;-55
2022/06/01 06:30:35;;;;;;;0.05;0.05;;;;;;;;;;6172823;23;20742;-56
2022/06/01 06:33:00;;;;;;;0.35;0.35;;;;;;;;;;6180605;23;20044;-55
2022/06/01 06:35:25;;;;;;;0.63;0.63;;;;;;;;;;6165968;23;20086;-56
2022/06/01 06:37:50;;;;;;;0.10;0.10;;;;;;;;;;6177342;23;20440;-55
2022/06/01 06:40:16;;;;;;;0.10;0.10;;;;;;;;;;6172355;23;20024;-53
2022/06/01 06:42:41;;;;;;;0.43;0.25;;;;;;;;;;6176659;23;20017;-56
2022/06/01 06:45:07;;;;;;;0.25;0.20;;;;;;;;;;6173732;23;20021;-56
2022/06/01 06:47:33;;;;;;;0.20;0.20;;;;;;;;;;6176448;23;20072;-54
2022/06/01 06:49:58;;;;;;;0.00;0.00;;;;;;;;;;6173580;23;20027;-56
2022/06/01 06:52:24;;;;;;;0.00;0.00;;;;;;;;;;6178645;23;20072;-55
2022/06/01 06:54:49;;;;;;;0.00;0.00;;;;;;;;;;6174814;23;20013;-56
2022/06/01 06:57:14;;;;;;;0.00;0.00;;;;;;;;;;6170786;23;20020;-54
2022/06/01 06:59:40;;;;;;;0.00;0.00;;;;;;;;;;6176077;23;20009;-54
2022/06/01 07:02:05;;;;;;;0.10;0.10;;;;;;;;;;6176687;23;20520;-55
2022/06/01 07:04:30;;;;;;;0.00;0.00;;;;;;;;;;6173280;23;20061;-55
2022/06/01 07:06:55;;;;;;;0.00;0.00;;;;;;;;;;6175107;23;20017;-54
2022/06/01 07:09:21;;;;;;;0.00;0.00;;;;;;;;;;6173373;23;20008;-55
2022/06/01 07:11:46;;;;;;;0.10;0.10;;;;;;;;;;6176026;23;20024;-54
2022/06/01 07:14:12;;;;;;;0.10;0.10;;;;;;;;;;6172846;23;20013;-55
2022/06/01 07:16:37;;;;;;;0.10;0.10;;;;;;;;;;6176194;23;20013;-56
2022/06/01 07:19:03;;;;;;;0.00;0.00;;;;;;;;;;6171705;23;20096;-55
2022/06/01 07:21:29;;;;;;;0.10;0.10;;;;;;;;;;6173370;23;22785;-55
2022/06/01 07:23:54;;;;;;;0.00;0.00;;;;;;;;;;6172782;23;20053;-57
2022/06/01 07:26:22;;;;;;;0.00;0.00;;;;;;;;;;6175222;23;20020;-57
2022/06/01 07:28:48;;;;;;;0.00;0.00;;;;;;;;;;6173805;23;20014;-55
2022/06/01 07:31:13;;;;;;;0.00;0.00;;;;;;;;;;6177912;23;20013;-55
2022/06/01 07:33:39;;;;;;;0.00;0.00;;;;;;;;;;6172119;23;20027;-57
2022/06/01 07:36:06;;;;;;;0.00;0.00;;;;;;;;;;6175965;23;20027;-57
2022/06/01 07:44:04;;;;;;;0.00;0.00;;;;;;;;;;6177195;23;20055;-56
2022/06/01 07:46:30;;;;;;;0.10;0.10;;;;;;;;;;6172690;23;20108;-57
2022/06/01 07:48:55;;;;;;;0.00;0.00;;;;;;;;;;6176049;23;20036;-56
2022/06/01 07:51:20;;;;;;;0.10;0.10;;;;;;;;;;6166415;23;20031;-56
2022/06/01 07:53:46;;;;;;;0.05;0.05;;;;;;;;;;6176597;23;20045;-57
2022/06/01 07:56:11;;;;;;;0.10;0.10;;;;;;;;;;6173874;23;20356;-57
2022/06/01 07:58:37;;;;;;;0.00;0.00;;;;;;;;;;6173966;23;20017;-55
2022/06/01 08:01:03;;;;;;;0.00;0.00;;;;;;;;;;6171270;23;20013;-56
2022/06/01 08:03:28;;;;;;;0.00;0.00;;;;;;;;;;6174848;23;20029;-55
2022/06/01 08:05:53;;;;;;;0.38;0.30;;;;;;;;;;6164426;23;20017;-56
2022/06/01 08:08:19;;;;;;;0.00;0.00;;;;;;;;;;6170717;23;20030;-56
2022/06/01 08:10:44;;;;;;;0.00;0.00;;;;;;;;;;6171654;23;20016;-57
2022/06/01 08:13:11;;;;;;;0.10;0.10;;;;;;;;;;6169410;23;20013;-54
2022/06/01 08:15:40;;;;;;;0.00;0.00;;;;;;;;;;6169849;23;20013;-55
2022/06/01 08:18:05;;;;;;;1.08;0.45;;;;;;;;;;6173840;23;20017;-54
2022/06/01 08:20:30;;;;;;;0.10;0.10;;;;;;;;;;6169476;23;20058;-55
2022/06/01 08:22:56;;;;;;;0.00;0.00;;;;;;;;;;6176177;23;20029;-56
2022/06/01 08:25:21;;;;;;;0.00;0.00;;;;;;;;;;6167799;23;20088;-55
2022/06/01 08:27:47;;;;;;;0.00;0.00;;;;;;;;;;6176909;23;20013;-56
2022/06/01 08:30:13;;;;;;;0.00;0.00;;;;;;;;;;6170587;23;20216;-57
2022/06/01 08:32:38;;;;;;;0.00;0.00;;;;;;;;;;6173652;23;20009;-56
2022/06/01 08:35:05;;;;;;;0.00;0.00;;;;;;;;;;6174585;23;20028;-57
2022/06/01 08:37:30;;;;;;;0.00;0.00;;;;;;;;;;6173750;23;20016;-56
2022/06/01 08:39:55;;;;;;;0.00;0.00;;;;;;;;;;6168673;23;20028;-57
2022/06/01 08:42:23;;;;;;;0.00;0.00;;;;;;;;;;6175605;23;20043;-56
2022/06/01 08:44:49;;;;;;;0.00;0.00;;;;;;;;;;6172452;23;20021;-56
2022/06/01 08:47:20;;;;;;;0.00;0.00;;;;;;;;;;6175717;23;20020;-56
2022/06/01 08:49:45;;;;;;;0.00;0.00;;;;;;;;;;6168523;23;20017;-56
2022/06/01 08:52:11;;;;;;;0.00;0.00;;;;;;;;;;6175478;23;20025;-56
2022/06/01 08:54:37;;;;;;;0.00;0.00;;;;;;;;;;6167498;23;20025;-55
2022/06/01 08:57:13;;;;;;;0.00;0.00;;;;;;;;;;6171878;23;20052;-54
2022/06/01 08:59:58;;;;;;;0.00;0.00;;;;;;;;;;6170489;23;20029;-56
2022/06/01 09:02:26;;;;;;;0.00;0.00;;;;;;;;;;6167252;23;20021;-55
2022/06/01 09:33:26;;;;;;;0.10;0.10;;;;;;;;;;6224444;22;20078;-55
2022/06/01 09:36:15;;;;;;;0.00;0.00;;;;;;;;;;6233821;22;20012;-56
2022/06/01 09:38:40;;;;;;;0.10;0.10;;;;;;;;;;6239206;22;20040;-55
2022/06/01 09:41:22;;;;;;;0.00;0.00;;;;;;;;;;6236321;22;20008;-55
2022/06/01 09:43:50;;;;;;;0.00;0.00;;;;;;;;;;6239125;22;20111;-54
2022/06/01 09:46:33;;;;;;;0.10;0.10;;;;;;;;;;6237302;22;20039;-56
2022/06/01 09:48:58;;;;;;;0.00;0.00;;;;;;;;;;6239084;23;20020;-57
2022/06/01 09:51:25;;;;;;;0.00;0.00;;;;;;;;;;6232231;22;20104;-56
2022/06/01 09:54:07;;;;;;;0.00;0.00;;;;;;;;;;6234067;22;20012;-55
2022/06/01 09:56:40;;;;;;;0.00;0.00;;;;;;;;;;6236625;22;20512;-57
2022/06/01 10:07:19;;;;;;;0.00;0.00;;;;;;;;;;6235791;22;20038;-55
2022/06/01 10:09:49;;;;;;;8.65;1.88;;;;;;;;;;6239187;23;20498;-54
2022/06/01 10:12:18;;;;;;;0.00;0.00;;;;;;;;;;6238600;22;20063;-55
2022/06/01 10:14:50;;;;;;;0.03;0.03;;;;;;;;;;6239482;22;20016;-57
2022/06/01 10:17:21;;;;;;;0.00;0.00;;;;;;;;;;6239313;22;20016;-57
2022/06/01 10:20:05;;;;;;;0.00;0.00;;;;;;;;;;6237590;23;20023;-55
2022/06/01 10:22:40;;;;;;;0.10;0.10;;;;;;;;;;6234059;22;20060;-57
2022/06/01 10:25:11;;;;;;;0.00;0.00;;;;;;;;;;6240064;22;20012;-56
2022/06/01 10:27:40;;;;;;;0.00;0.00;;;;;;;;;;6237398;22;20406;-56
2022/06/01 10:30:07;;;;;;;0.00;0.00;;;;;;;;;;6240058;22;20055;-59
2022/06/01 10:32:35;;;;;;;0.00;0.00;;;;;;;;;;6237873;22;20390;-56
2022/06/01 10:35:18;;;;;;;0.00;0.00;;;;;;;;;;6238393;22;20020;-56
2022/06/01 10:37:51;;;;;;;0.10;0.10;;;;;;;;;;6238220;22;20004;-55
2022/06/01 10:40:19;;;;;;;0.00;0.00;;;;;;;;;;6239955;22;20020;-55
2022/06/01 10:45:39;;;;;;;0.00;0.00;;;;;;;;;;6239081;22;20035;-55
2022/06/01 10:48:12;;;;;;;0.00;0.00;;;;;;;;;;6238717;22;20012;-57
2022/06/01 10:50:58;;;;;;;0.28;0.28;;;;;;;;;;6236034;22;20008;-56
2022/06/01 10:53:38;;;;;;;0.10;0.10;;;;;;;;;;6238920;22;20016;-57
2022/06/01 10:56:03;;;;;;;0.00;0.00;;;;;;;;;;6241046;22;20012;-54
2022/06/01 10:58:29;;;;;;;0.00;0.00;;;;;;;;;;6238218;22;20089;-58
2022/06/01 11:01:01;;;;;;;0.00;0.00;;;;;;;;;;6239055;22;20502;-56
2022/06/01 11:03:29;;;;;;;0.00;0.00;;;;;;;;;;6236657;22;20034;-56
2022/06/01 11:06:13;;;;;;;0.35;0.35;;;;;;;;;;6239284;22;20008;-56
2022/06/01 11:08:50;;;;;;;0.10;0.10;;;;;;;;;;6237068;22;20381;-55
2022/06/01 11:11:22;;;;;;;0.00;0.00;;;;;;;;;;6237857;22;20124;-56
2022/06/01 11:14:06;;;;;;;0.00;0.00;;;;;;;;;;6238843;22;20004;-55
2022/06/01 11:16:47;;;;;;;0.00;0.00;;;;;;;;;;6240846;22;20070;-55
2022/06/01 11:19:26;;;;;;;0.00;0.00;;;;;;;;;;6234934;22;20016;-54
2022/06/01 11:21:54;;;;;;;0.00;0.00;;;;;;;;;;6238209;22;20066;-56
2022/06/01 11:24:45;;;;;;;0.00;0.00;;;;;;;;;;6235437;22;20218;-55
2022/06/01 11:27:26;;;;;;;0.00;0.00;;;;;;;;;;6237766;22;20027;-54
2022/06/01 11:30:00;;;;;;;0.00;0.00;;;;;;;;;;6240257;22;20020;-54
2022/06/01 11:32:29;;;;;;;0.00;0.00;;;;;;;;;;6238342;22;20115;-56
2022/06/01 11:35:00;;;;;;;0.00;0.00;;;;;;;;;;6238212;22;20012;-55
2022/06/01 11:37:36;;;;;;;0.00;0.00;;;;;;;;;;6238830;22;20008;-55
2022/06/01 11:40:09;;;;;;;0.10;0.10;;;;;;;;;;6233563;22;20347;-55
2022/06/01 11:42:39;;;;;;;0.00;0.00;;;;;;;;;;6240601;22;20042;-54
2022/06/01 11:45:09;;;;;;;0.00;0.00;;;;;;;;;;6237570;22;20026;-53
2022/06/01 11:47:40;;;;;;;0.00;0.00;;;;;;;;;;6239022;22;20016;-55
2022/06/01 11:50:14;;;;;;;0.10;0.10;;;;;;;;;;6237869;22;20026;-53
2022/06/01 11:52:42;;;;;;;0.00;0.00;;;;;;;;;;6238824;22;20070;-55
2022/06/01 11:55:07;;;;;;;0.00;0.00;;;;;;;;;;6237558;23;20016;-56
2022/06/01 11:57:46;;;;;;;0.00;0.00;;;;;;;;;;6237858;22;20390;-54
2022/06/01 12:00:14;;;;;;;0.00;0.00;;;;;;;;;;6239353;22;20415;-55
2022/06/01 12:02:43;;;;;;;0.00;0.00;;;;;;;;;;6206642;23;20029;-57
2022/06/01 12:05:13;;;;;;;0.00;0.00;;;;;;;;;;6208495;23;20604;-54
2022/06/01 12:07:53;;;;;;;0.00;0.00;;;;;;;;;;6230005;22;20016;-57
2022/06/01 12:10:23;;;;;;;0.00;0.00;;;;;;;;;;6207583;23;20200;-54
2022/06/01 12:12:52;;;;;;;0.00;0.00;;;;;;;;;;6205206;22;20016;-54
2022/06/01 12:15:26;;;;;;;0.38;0.38;;;;;;;;;;6207104;22;20017;-56
2022/06/01 12:17:59;;;;;;;0.00;0.00;;;;;;;;;;6207332;22;20064;-57
2022/06/01 12:20:33;;;;;;;0.05;0.05;;;;;;;;;;6203217;22;20463;-56
2022/06/01 12:28:46;;;;;;;0.00;0.00;;;;;;;;;;6227053;22;20019;-57
2022/06/01 12:31:14;;;;;;;0.00;0.00;;;;;;;;;;6238204;22;20016;-57
2022/06/01 12:33:58;;;;;;;0.00;0.00;;;;;;;;;;6265939;22;20019;-57
2022/06/01 12:36:24;;;;;;;0.00;0.00;;;;;;;;;;6265442;22;20011;-57
2022/06/01 12:38:50;;;;;;;0.00;0.00;;;;;;;;;;6243090;22;20099;-57
2022/06/01 12:41:17;;;;;;;0.00;0.00;;;;;;;;;;6265678;22;20016;-56
2022/06/01 12:43:48;;;;;;;0.03;0.03;;;;;;;;;;6271142;22;20023;-57
2022/06/01 12:46:27;;;;;;;0.00;0.00;;;;;;;;;;6269742;22;20007;-57
2022/06/01 12:49:12;;;;;;;0.00;0.00;;;;;;;;;;6271206;22;20016;-57
2022/06/01 12:51:39;;;;;;;0.00;0.00;;;;;;;;;;6258746;22;20397;-56
2022/06/01 12:54:05;;;;;;;0.00;0.00;;;;;;;;;;6241984;22;20507;-57
2022/06/01 12:56:31;;;;;;;0.00;0.00;;;;;;;;;;6269162;22;20065;-56
2022/06/01 12:58:57;;;;;;;0.00;0.00;;;;;;;;;;6271351;22;20020;-56
2022/06/01 13:01:27;;;;;;;0.00;0.00;;;;;;;;;;6242561;22;20023;-56
2022/06/01 13:03:59;;;;;;;0.10;0.10;;;;;;;;;;6242281;22;20030;-54
2022/06/01 13:06:26;;;;;;;0.00;0.00;;;;;;;;;;6271141;22;20007;-55
2022/06/01 13:09:05;;;;;;;0.00;0.00;;;;;;;;;;6267922;22;20015;-56
2022/06/01 13:11:31;;;;;;;0.00;0.00;;;;;;;;;;6270671;22;20019;-55
2022/06/01 13:13:59;;;;;;;0.00;0.00;;;;;;;;;;6269945;22;20426;-55
2022/06/01 13:16:32;;;;;;;0.00;0.00;;;;;;;;;;6271691;22;20055;-56
2022/06/01 13:18:58;;;;;;;0.00;0.00;;;;;;;;;;6271788;22;20030;-55
2022/06/01 13:21:23;;;;;;;0.00;0.00;;;;;;;;;;6271226;22;20183;-55
2022/06/01 13:23:54;;;;;;;0.00;0.00;;;;;;;;;;6268612;22;20028;-55
2022/06/01 13:26:31;;;;;;;0.00;0.00;;;;;;;;;;6270678;22;20327;-57
2022/06/01 13:29:00;;;;;;;0.00;0.00;;;;;;;;;;6269741;22;20091;-57
2022/06/01 13:31:25;;;;;;;0.00;0.00;;;;;;;;;;6242691;22;20019;-57
2022/06/01 13:33:51;;;;;;;0.00;0.00;;;;;;;;;;6269592;22;20106;-57
2022/06/01 13:36:27;;;;;;;0.00;0.00;;;;;;;;;;6269977;22;20023;-56
2022/06/01 13:38:59;;;;;;;0.00;0.00;;;;;;;;;;6271716;22;20015;-57
2022/06/01 13:41:33;;;;;;;0.00;0.00;;;;;;;;;;6268058;22;20015;-57
2022/06/01 13:43:58;;;;;;;0.00;0.00;;;;;;;;;;6272426;22;20031;-57
2022/06/01 13:46:30;;;;;;;0.00;0.00;;;;;;;;;;6259618;22;20012;-57
2022/06/01 13:48:55;;;;;;;0.00;0.00;;;;;;;;;;6269114;22;20014;-57
2022/06/01 13:51:39;;;;;;;0.00;0.00;;;;;;;;;;6271007;22;20031;-57
2022/06/01 13:54:17;;;;;;;0.20;0.20;;;;;;;;;;6271229;22;20011;-57
2022/06/01 13:56:44;;;;;;;0.00;0.00;;;;;;;;;;6269185;22;20083;-57
2022/06/01 13:59:14;;;;;;;0.00;0.00;;;;;;;;;;6268065;22;20027;-57
2022/06/01 14:01:49;;;;;;;0.00;0.00;;;;;;;;;;6237806;22;20673;-57
2022/06/01 14:04:26;;;;;;;0.00;0.00;;;;;;;;;;6270954;22;20047;-57
2022/06/01 14:06:54;;;;;;;0.00;0.00;;;;;;;;;;6269278;22;20030;-57
2022/06/01 14:09:22;;;;;;;0.00;0.00;;;;;;;;;;6272277;22;20090;-57
2022/06/01 14:11:47;;;;;;;0.00;0.00;;;;;;;;;;6273355;22;20039;-57
2022/06/01 14:14:17;;;;;;;0.00;0.00;;;;;;;;;;6268823;22;20062;-57
2022/06/01 14:16:49;;;;;;;0.00;0.00;;;;;;;;;;6271913;22;20008;-56
2022/06/01 14:19:15;;;;;;;0.00;0.00;;;;;;;;;;6269075;22;20076;-57
2022/06/01 14:21:40;;;;;;;0.00;0.00;;;;;;;;;;6265244;22;20018;-57
2022/06/01 14:24:05;;;;;;;0.00;0.00;;;;;;;;;;6270493;22;20417;-56
2022/06/01 14:29:15;;;;;;;0.00;0.00;;;;;;;;;;6268080;22;20017;-56
2022/06/01 14:31:40;;;;;;;0.00;0.00;;;;;;;;;;6268118;22;20035;-57
2022/06/01 14:34:06;;;;;;;0.00;0.00;;;;;;;;;;6270053;22;20012;-57
2022/06/01 14:36:32;;;;;;;0.00;0.00;;;;;;;;;;6270265;22;20019;-56
2022/06/01 14:38:57;;;;;;;0.10;0.10;;;;;;;;;;6272496;22;20338;-57
2022/06/01 14:41:25;;;;;;;0.00;0.00;;;;;;;;;;6267715;22;20314;-56
2022/06/01 14:43:51;;;;;;;0.00;0.00;;;;;;;;;;6242057;22;20379;-56
2022/06/01 14:46:17;;;;;;;0.00;0.00;;;;;;;;;;6267828;22;20587;-57
2022/06/01 14:48:42;;;;;;;0.00;0.00;;;;;;;;;;6269636;22;20074;-56
2022/06/01 14:51:11;;;;;;;0.00;0.00;;;;;;;;;;6268684;22;20563;-56
2022/06/01 14:53:37;;;;;;;0.00;0.00;;;;;;;;;;6270981;22;20528;-56
2022/06/01 14:56:03;;;;;;;0.00;0.00;;;;;;;;;;6269175;22;20059;-57
2022/06/01 14:58:28;;;;;;;0.00;0.00;;;;;;;;;;6269197;22;20008;-55
2022/06/01 15:01:01;;;;;;;0.00;0.00;;;;;;;;;;6267750;22;20011;-55
2022/06/01 15:03:29;;;;;;;0.00;0.00;;;;;;;;;;6270044;22;20020;-56
2022/06/01 15:05:54;;;;;;;0.00;0.00;;;;;;;;;;6242016;22;20126;-57
2022/06/01 15:08:20;;;;;;;0.00;0.00;;;;;;;;;;6266529;22;20489;-56
2022/06/01 15:10:45;;;;;;;0.00;0.00;;;;;;;;;;6269519;22;20082;-56
2022/06/01 15:13:11;;;;;;;0.00;0.00;;;;;;;;;;6269315;22;20379;-55
2022/06/01 15:15:37;;;;;;;0.00;0.00;;;;;;;;;;6265410;22;20031;-55
2022/06/01 15:18:02;;;;;;;0.00;0.00;;;;;;;;;;6242543;22;20016;-57
2022/06/01 15:20:27;;;;;;;0.00;0.00;;;;;;;;;;6256240;22;22120;-57
2022/06/01 15:22:54;;;;;;;0.00;0.00;;;;;;;;;;6270627;22;20016;-57
2022/06/01 15:25:20;;;;;;;0.00;0.00;;;;;;;;;;6271620;22;20023;-57
2022/06/01 15:27:45;;;;;;;0.00;0.00;;;;;;;;;;6268440;22;20064;-57
2022/06/01 15:41:06;;;;;;;0.10;0.10;;;;;;;;;;6270622;22;20066;-57
2022/06/01 15:43:32;;;;;;;0.20;0.20;;;;;;;;;;6267249;22;20397;-56
2022/06/01 15:45:57;;;;;;;0.00;0.00;;;;;;;;;;6270333;22;20018;-58
2022/06/01 15:48:22;;;;;;;0.00;0.00;;;;;;;;;;6264997;22;20026;-58
2022/06/01 15:50:50;;;;;;;0.00;0.00;;;;;;;;;;6272148;22;20031;-57
2022/06/01 15:53:15;;;;;;;0.00;0.00;;;;;;;;;;6268365;22;20023;-57
2022/06/01 15:55:41;;;;;;;0.00;0.00;;;;;;;;;;6270502;22;20055;-57
2022/06/01 15:58:06;;;;;;;0.00;0.00;;;;;;;;;;6265821;22;20008;-57
2022/06/01 16:00:32;;;;;;;0.00;0.00;;;;;;;;;;6269139;22;20563;-57